Time;durP1;ratioP1;P1;durP2;ratioP2;P2;SDS_P1;SDS_P2;PMS_P1;PMS_P2;Temp;Humidity;BMP_temperature;BMP_pressure;BME280_temperature;BME280_humidity;BME280_pressure;Samples;Min_cycle;Max_cycle;Signal;HPM_P1;HPM_P2
2021/10/19 00:01:10;;;;;;;;;;;;;;;8.73;82.57;99214.48;1813376;78;24561;-87
2021/10/19 00:03:36;;;;;;;;;;;;;;;8.69;82.55;99214.72;1814415;79;20233;-87
2021/10/19 00:06:02;;;;;;;;;;;;;;;8.65;82.57;99218.41;1811470;78;25000;-87
2021/10/19 00:08:28;;;;;;;;;;;;;;;8.63;82.56;99226.76;1809470;77;21845;-87
2021/10/19 00:10:55;;;;;;;;;;;;;;;8.60;82.57;99219.95;1811486;79;25929;-87
2021/10/19 00:13:21;;;;;;;;;;;;;;;8.48;82.57;99216.63;1813341;79;25119;-87
2021/10/19 00:15:47;;;;;;;;;;;;;;;8.43;82.57;99217.31;1812942;79;20378;-86
2021/10/19 00:18:13;;;;;;;;;;;;;;;8.43;82.56;99217.31;1809688;79;25006;-87
2021/10/19 00:20:39;;;;;;;;;;;;;;;8.40;82.56;99211.77;1814274;77;22092;-87
2021/10/19 00:23:05;;;;;;;;;;;;;;;8.34;82.60;99217.31;1812096;78;25961;-87
2021/10/19 00:25:31;;;;;;;;;;;;;;;8.33;82.63;99208.25;1813606;79;24446;-87
2021/10/19 00:27:57;;;;;;;;;;;;;;;8.32;82.67;99215.22;1814103;79;20219;-87
2021/10/19 00:30:23;;;;;;;;;;;;;;;8.34;82.71;99206.88;1813174;78;24970;-87
2021/10/19 00:32:50;;;;;;;;;;;;;;;8.39;82.79;99207.95;1813025;79;21989;-86
2021/10/19 00:35:16;;;;;;;;;;;;;;;8.45;82.87;99206.36;1812901;78;25932;-87
2021/10/19 00:37:42;;;;;;;;;;;;;;;8.50;82.95;99213.95;1812771;77;24500;-87
2021/10/19 00:40:08;;;;;;;;;;;;;;;8.52;83.03;99203.81;1788678;78;20263;-87
2021/10/19 00:42:35;;;;;;;;;;;;;;;8.57;83.12;99195.75;1814806;77;24803;-86
2021/10/19 00:45:01;;;;;;;;;;;;;;;8.58;83.17;99192.23;1814693;77;22064;-86
2021/10/19 00:47:28;;;;;;;;;;;;;;;8.59;83.23;99194.77;1807507;77;25976;-86
2021/10/19 00:49:54;;;;;;;;;;;;;;;8.60;83.26;99189.94;1812162;78;24470;-86
2021/10/19 00:52:20;;;;;;;;;;;;;;;8.62;83.32;99192.48;1814474;77;21148;-86
2021/10/19 00:54:46;;;;;;;;;;;;;;;8.64;83.38;99182.34;1814131;79;20264;-86
2021/10/19 00:57:12;;;;;;;;;;;;;;;8.62;83.41;99182.86;1815883;77;21930;-86
2021/10/19 00:59:46;;;;;;;;;;;;;;;8.61;83.44;99177.28;1816583;77;25910;-86
2021/10/19 01:02:15;;;;;;;;;;;;;;;8.62;83.46;99174.22;1816485;77;24446;-86
2021/10/19 01:04:42;;;;;;;;;;;;;;;8.62;83.50;99171.13;1812006;77;20239;-86
2021/10/19 01:07:09;;;;;;;;;;;;;;;8.62;83.55;99165.09;1814724;77;25128;-86
2021/10/19 01:09:38;;;;;;;;;;;;;;;8.63;83.56;99171.52;1814452;77;21943;-86
2021/10/19 01:12:05;;;;;;;;;;;;;;;8.60;83.59;99168.22;1812191;77;26834;-86
2021/10/19 01:14:32;;;;;;;;;;;;;;;8.56;83.58;99171.45;1813917;77;24497;-85
2021/10/19 01:16:58;;;;;;;;;;;;;;;8.50;83.58;99165.23;1814057;77;20489;-86
2021/10/19 01:19:25;;;;;;;;;;;;;;;8.47;83.58;99170.59;1817868;77;25159;-85
2021/10/19 01:21:52;;;;;;;;;;;;;;;8.44;83.60;99169.91;1824739;77;22083;-86
2021/10/19 01:24:18;;;;;;;;;;;;;;;8.43;83.60;99173.42;1824273;77;26041;-86
2021/10/19 01:26:44;;;;;;;;;;;;;;;8.39;83.63;99168.84;1824157;77;24482;-86
2021/10/19 01:29:10;;;;;;;;;;;;;;;8.38;83.66;99167.14;1821989;77;20886;-86
2021/10/19 01:31:36;;;;;;;;;;;;;;;8.39;83.67;99170.14;1771346;78;25084;-86
2021/10/19 01:34:03;;;;;;;;;;;;;;;8.40;83.70;99166.58;1799703;77;22104;-86
2021/10/19 01:36:28;;;;;;;;;;;;;;;8.39;83.73;99163.62;1811240;78;26007;-86
2021/10/19 01:38:54;;;;;;;;;;;;;;;8.37;83.75;99162.37;1811485;77;20273;-86
2021/10/19 01:41:21;;;;;;;;;;;;;;;8.38;83.76;99155.41;1809804;77;20512;-86
2021/10/19 01:43:47;;;;;;;;;;;;;;;8.37;83.80;99158.47;1811987;78;25171;-86
2021/10/19 01:46:13;;;;;;;;;;;;;;;8.33;83.81;99154.33;1805803;77;22039;-86
2021/10/19 01:48:40;;;;;;;;;;;;;;;8.28;83.81;99152.84;1815713;77;26018;-86
2021/10/19 01:51:06;;;;;;;;;;;;;;;8.26;83.82;99150.30;1811853;77;24513;-86
2021/10/19 01:53:32;;;;;;;;;;;;;;;8.24;83.83;99140.39;1827098;77;20802;-86
2021/10/19 01:55:58;;;;;;;;;;;;;;;8.23;83.88;99143.94;1826177;77;25008;-86
2021/10/19 01:58:25;;;;;;;;;;;;;;;8.26;83.90;99140.32;1803851;78;20232;-86
2021/10/19 02:00:54;;;;;;;;;;;;;;;8.26;83.96;99138.56;1785001;77;21704;-86
2021/10/19 02:03:20;;;;;;;;;;;;;;;8.26;84.00;99142.93;1808583;77;24528;-86
2021/10/19 02:05:47;;;;;;;;;;;;;;;8.24;84.03;99133.88;1808502;78;20261;-87
2021/10/19 02:08:13;;;;;;;;;;;;;;;8.24;84.05;99131.72;1814656;77;25262;-86
2021/10/19 02:10:39;;;;;;;;;;;;;;;8.23;84.10;99133.52;1811515;77;20248;-86
2021/10/19 02:13:05;;;;;;;;;;;;;;;8.23;84.14;99124.84;1819319;77;26411;-86
2021/10/19 02:15:32;;;;;;;;;;;;;;;8.25;84.17;99129.50;1810706;77;24523;-86
2021/10/19 02:17:59;;;;;;;;;;;;;;;8.23;84.22;99126.99;1813550;77;20146;-86
2021/10/19 02:20:25;;;;;;;;;;;;;;;8.23;84.27;99125.69;1810746;77;25001;-86
2021/10/19 02:22:52;;;;;;;;;;;;;;;8.21;84.30;99118.84;1745170;80;22786;-86
2021/10/19 02:25:19;;;;;;;;;;;;;;;8.21;84.34;99126.21;1743643;81;26033;-86
2021/10/19 02:27:45;;;;;;;;;;;;;;;8.23;84.35;99120.93;1745511;81;24537;-86
2021/10/19 02:30:18;;;;;;;;;;;;;;;8.24;84.40;99119.98;1738644;80;20625;-86
2021/10/19 02:32:46;;;;;;;;;;;;;;;8.26;84.43;99127.28;1741901;81;24982;-86
2021/10/19 02:35:13;;;;;;;;;;;;;;;8.27;84.48;99128.52;1735902;81;22183;-86
2021/10/19 02:37:41;;;;;;;;;;;;;;;8.30;84.52;99133.60;1743312;80;25469;-86
2021/10/19 02:40:08;;;;;;;;;;;;;;;8.30;84.55;99127.54;1740807;81;24553;-86
2021/10/19 02:42:34;;;;;;;;;;;;;;;8.26;84.58;99130.73;1733629;80;20271;-86
2021/10/19 02:45:03;;;;;;;;;;;;;;;8.27;84.61;99123.77;1756391;79;20256;-86
2021/10/19 02:47:29;;;;;;;;;;;;;;;8.29;84.64;99127.15;1770663;79;22076;-86
2021/10/19 02:49:55;;;;;;;;;;;;;;;8.30;84.66;99124.93;1763046;80;25979;-86
2021/10/19 02:52:21;;;;;;;;;;;;;;;8.29;84.67;99117.53;1776003;78;24392;-86
2021/10/19 02:54:49;;;;;;;;;;;;;;;8.27;84.70;99123.30;1744975;80;20271;-86
2021/10/19 02:57:15;;;;;;;;;;;;;;;8.28;84.69;99123.70;1784489;78;25032;-86
2021/10/19 02:59:41;;;;;;;;;;;;;;;8.31;84.74;99113.59;1781757;78;20343;-86
2021/10/19 03:02:07;;;;;;;;;;;;;;;8.28;84.75;99101.98;1786534;78;26024;-86
2021/10/19 03:04:33;;;;;;;;;;;;;;;8.26;84.77;99095.99;1784584;78;24420;-86
2021/10/19 03:06:59;;;;;;;;;;;;;;;8.23;84.77;99107.44;1778351;79;20240;-86
2021/10/19 03:09:26;;;;;;;;;;;;;;;8.24;84.80;99110.86;1784601;78;24991;-86
2021/10/19 03:11:52;;;;;;;;;;;;;;;8.28;84.81;99103.29;1780802;78;22000;-86
2021/10/19 03:14:18;;;;;;;;;;;;;;;8.23;84.83;99094.86;1735030;80;26073;-86
2021/10/19 03:16:44;;;;;;;;;;;;;;;8.24;84.83;99105.64;1738595;80;24440;-86
2021/10/19 03:19:12;;;;;;;;;;;;;;;8.22;84.83;99110.11;1750113;80;20808;-85
2021/10/19 03:21:38;;;;;;;;;;;;;;;8.17;84.84;99097.31;1752244;81;24980;-86
2021/10/19 03:24:04;;;;;;;;;;;;;;;8.22;84.84;99098.38;1765502;79;22106;-87
2021/10/19 03:26:31;;;;;;;;;;;;;;;8.25;84.86;99094.30;1734267;81;26060;-87
2021/10/19 03:28:57;;;;;;;;;;;;;;;8.26;84.88;99098.14;1739629;80;24422;-86
2021/10/19 03:31:23;;;;;;;;;;;;;;;8.27;84.89;99110.72;1738857;80;20496;-86
2021/10/19 03:33:49;;;;;;;;;;;;;;;8.27;84.91;99113.33;1751850;80;25030;-86
2021/10/19 03:36:15;;;;;;;;;;;;;;;8.25;84.92;99111.25;1747361;80;21967;-86
2021/10/19 03:38:42;;;;;;;;;;;;;;;8.26;84.93;99109.03;1766313;79;26200;-87
2021/10/19 03:41:08;;;;;;;;;;;;;;;8.23;84.91;99108.74;1776558;80;24423;-87
2021/10/19 03:43:34;;;;;;;;;;;;;;;8.19;84.92;99105.03;1771608;80;20532;-87
2021/10/19 03:46:01;;;;;;;;;;;;;;;8.16;84.91;99103.89;1761154;80;24971;-86
2021/10/19 03:48:27;;;;;;;;;;;;;;;8.15;84.92;99106.11;1765592;80;21946;-86
2021/10/19 03:50:53;;;;;;;;;;;;;;;8.14;84.91;99101.81;1772522;80;25990;-86
2021/10/19 03:53:25;;;;;;;;;;;;;;;8.11;84.93;99105.42;1764510;80;25165;-86
2021/10/19 03:55:52;;;;;;;;;;;;;;;8.12;84.92;99104.52;1757415;80;20509;-87
2021/10/19 03:58:18;;;;;;;;;;;;;;;8.14;84.93;99111.78;1760362;80;25146;-87
2021/10/19 04:00:44;;;;;;;;;;;;;;;8.11;84.94;99109.80;1766501;80;20917;-86
2021/10/19 04:05:42;;;;;;;;;;;;;;;8.09;84.95;99106.41;1884724;75;20719;-85
2021/10/19 04:08:08;;;;;;;;;;;;;;;8.03;84.94;99111.45;1855542;77;21976;-86
2021/10/19 04:10:34;;;;;;;;;;;;;;;8.03;84.95;99109.31;1855475;76;26128;-86
2021/10/19 04:13:00;;;;;;;;;;;;;;;8.02;84.96;99103.73;1850995;76;24632;-86
2021/10/19 04:15:26;;;;;;;;;;;;;;;8.02;85.00;99101.95;1809316;78;20467;-85
2021/10/19 04:17:52;;;;;;;;;;;;;;;8.01;85.00;99104.65;1786093;78;24141;-85
2021/10/19 04:20:18;;;;;;;;;;;;;;;8.02;85.02;99108.46;1759028;79;20259;-85
2021/10/19 04:22:44;;;;;;;;;;;;;;;8.03;85.04;99106.25;1790782;79;26072;-85
2021/10/19 04:25:10;;;;;;;;;;;;;;;8.01;85.06;99102.05;1787309;79;24541;-85
2021/10/19 04:27:36;;;;;;;;;;;;;;;8.01;85.08;99105.95;1788444;79;20164;-85
2021/10/19 04:30:03;;;;;;;;;;;;;;;7.96;85.07;99112.20;1787748;79;24455;-85
2021/10/19 04:32:29;;;;;;;;;;;;;;;7.95;85.09;99115.76;1789161;79;22190;-86
2021/10/19 04:34:55;;;;;;;;;;;;;;;7.94;85.10;99116.67;1786903;78;26029;-85
2021/10/19 04:37:22;;;;;;;;;;;;;;;7.91;85.12;99123.77;1786596;79;24537;-86
2021/10/19 04:39:48;;;;;;;;;;;;;;;7.91;85.12;99118.56;1787831;79;20201;-86
2021/10/19 04:42:14;;;;;;;;;;;;;;;7.92;85.15;99123.70;1785156;79;24466;-86
2021/10/19 04:44:40;;;;;;;;;;;;;;;7.94;85.15;99117.13;1788205;78;22060;-85
2021/10/19 04:47:06;;;;;;;;;;;;;;;7.92;85.19;99115.05;1832291;77;21012;-85
2021/10/19 04:49:32;;;;;;;;;;;;;;;7.88;85.18;99106.54;1823825;77;24413;-86
2021/10/19 04:51:59;;;;;;;;;;;;;;;7.83;85.18;99113.73;1779783;80;20439;-86
2021/10/19 04:54:25;;;;;;;;;;;;;;;7.82;85.19;99112.50;1802380;78;20279;-85
2021/10/19 04:56:51;;;;;;;;;;;;;;;7.82;85.23;99109.89;1827420;77;20896;-85
2021/10/19 04:59:17;;;;;;;;;;;;;;;7.84;85.24;99114.12;1827050;77;20920;-85
2021/10/19 05:01:43;;;;;;;;;;;;;;;7.83;85.27;99112.44;1828626;77;24477;-85
2021/10/19 05:04:14;;;;;;;;;;;;;;;7.84;85.28;99112.83;1818430;77;20204;-85
2021/10/19 05:06:37;;;;;;;;;;;;;;;7.85;85.28;99108.45;1822921;78;24063;-85
2021/10/19 05:09:07;;;;;;;;;;;;;;;7.85;85.31;99118.88;1824312;78;22056;-85
2021/10/19 05:11:33;;;;;;;;;;;;;;;7.83;85.33;99122.86;1803570;78;26045;-85
2021/10/19 05:14:06;;;;;;;;;;;;;;;7.82;85.33;99134.64;1816196;78;24675;-85
2021/10/19 05:16:32;;;;;;;;;;;;;;;7.85;85.36;99130.16;1807413;78;20459;-85
2021/10/19 05:18:58;;;;;;;;;;;;;;;7.84;85.38;99125.00;1810476;78;20221;-85
2021/10/19 05:21:24;;;;;;;;;;;;;;;7.82;85.40;99131.58;1809860;78;21923;-86
2021/10/19 05:23:51;;;;;;;;;;;;;;;7.85;85.43;99139.27;1813062;78;25969;-86
2021/10/19 05:26:17;;;;;;;;;;;;;;;7.87;85.44;99139.18;1804056;78;24511;-86
2021/10/19 05:28:43;;;;;;;;;;;;;;;7.93;85.49;99142.80;1816156;78;20480;-86
2021/10/19 05:31:09;;;;;;;;;;;;;;;7.99;85.52;99135.99;1804609;78;20715;-85
2021/10/19 05:33:35;;;;;;;;;;;;;;;8.04;85.57;99137.06;1810749;78;21921;-85
2021/10/19 05:36:01;;;;;;;;;;;;;;;8.03;85.59;99128.86;1811848;78;20861;-85
2021/10/19 05:38:28;;;;;;;;;;;;;;;8.04;85.62;99135.31;1814361;78;24439;-85
2021/10/19 05:40:54;;;;;;;;;;;;;;;8.06;85.63;99140.00;1817348;78;20468;-85
2021/10/19 05:43:20;;;;;;;;;;;;;;;8.08;85.63;99145.12;1808159;78;25133;-85
2021/10/19 05:45:46;;;;;;;;;;;;;;;8.13;85.65;99152.28;1815378;77;22049;-85
2021/10/19 05:48:12;;;;;;;;;;;;;;;8.21;85.69;99154.89;1806365;78;21020;-85
2021/10/19 05:50:38;;;;;;;;;;;;;;;8.29;85.72;99154.04;1817486;78;24617;-85
2021/10/19 05:53:04;;;;;;;;;;;;;;;8.31;85.76;99162.68;1813084;78;20524;-85
2021/10/19 05:55:32;;;;;;;;;;;;;;;8.33;85.76;99163.92;1811950;78;22550;-85
2021/10/19 05:57:58;;;;;;;;;;;;;;;8.34;85.76;99163.84;1806988;78;21993;-85
2021/10/19 06:00:24;;;;;;;;;;;;;;;8.39;85.80;99169.69;1813059;78;21645;-85
2021/10/19 06:02:50;;;;;;;;;;;;;;;8.42;85.80;99167.82;1801996;78;24617;-84
2021/10/19 06:05:16;;;;;;;;;;;;;;;8.50;85.80;99173.52;1794741;78;20485;-85
2021/10/19 06:07:42;;;;;;;;;;;;;;;8.52;85.83;99172.50;1750314;80;24538;-85
2021/10/19 06:10:08;;;;;;;;;;;;;;;8.55;85.86;99159.33;1773517;79;20294;-85
2021/10/19 06:12:34;;;;;;;;;;;;;;;8.59;85.84;99164.77;1776573;79;26148;-85
2021/10/19 06:15:01;;;;;;;;;;;;;;;8.62;85.84;99165.91;1761752;81;24460;-85
2021/10/19 06:17:26;;;;;;;;;;;;;;;8.65;85.83;99154.48;1744538;79;20340;-85
2021/10/19 06:19:52;;;;;;;;;;;;;;;8.67;85.84;99149.55;1771291;79;20331;-85
2021/10/19 06:22:19;;;;;;;;;;;;;;;8.70;85.84;99159.01;1793245;79;20851;-87
2021/10/19 06:24:45;;;;;;;;;;;;;;;8.73;85.83;99157.08;1779062;79;26083;-87
2021/10/19 06:27:11;;;;;;;;;;;;;;;8.73;85.82;99154.92;1786618;79;20887;-85
2021/10/19 06:29:43;;;;;;;;;;;;;;;8.74;85.81;99152.25;1784421;79;20245;-85
2021/10/19 06:32:09;;;;;;;;;;;;;;;8.77;85.79;99140.36;1753289;79;24358;-85
2021/10/19 06:34:35;;;;;;;;;;;;;;;8.83;85.80;99134.44;1784765;79;20327;-85
2021/10/19 06:37:01;;;;;;;;;;;;;;;8.81;85.77;99131.45;1758043;79;26038;-85
2021/10/19 06:39:27;;;;;;;;;;;;;;;8.84;85.76;99133.53;1771550;79;25161;-85
2021/10/19 06:41:53;;;;;;;;;;;;;;;8.89;85.76;99127.61;1772394;79;20637;-85
2021/10/19 06:44:20;;;;;;;;;;;;;;;8.91;85.76;99123.13;1775256;79;24369;-85
2021/10/19 06:46:47;;;;;;;;;;;;;;;8.92;85.77;99122.21;1805176;77;22070;-84
2021/10/19 06:49:13;;;;;;;;;;;;;;;8.96;85.74;99123.73;1799722;78;26000;-84
2021/10/19 06:51:45;;;;;;;;;;;;;;;8.97;85.75;99118.89;1809330;78;23943;-85
2021/10/19 06:54:11;;;;;;;;;;;;;;;9.01;85.74;99123.02;1816473;78;20137;-85
2021/10/19 06:56:37;;;;;;;;;;;;;;;9.03;85.75;99125.11;1804277;77;24292;-85
2021/10/19 06:59:04;;;;;;;;;;;;;;;9.06;85.74;99114.48;1814099;78;21936;-85
2021/10/19 07:01:30;;;;;;;;;;;;;;;9.10;85.73;99118.64;1813004;78;26624;-85
2021/10/19 07:03:56;;;;;;;;;;;;;;;9.16;85.73;99118.33;1771641;80;25229;-85
2021/10/19 07:06:24;;;;;;;;;;;;;;;9.18;85.73;99118.61;1784096;79;20308;-85
2021/10/19 07:08:53;;;;;;;;;;;;;;;9.24;85.76;99123.50;1796071;79;24395;-85
2021/10/19 07:11:18;;;;;;;;;;;;;;;9.32;85.78;99118.34;1809167;77;23784;-85
2021/10/19 07:13:45;;;;;;;;;;;;;;;9.36;85.80;99116.78;1807150;78;25985;-85
2021/10/19 07:16:10;;;;;;;;;;;;;;;9.40;85.82;99117.45;1744294;80;20536;-85
2021/10/19 07:18:37;;;;;;;;;;;;;;;9.47;85.83;99113.59;1756786;80;20241;-85
2021/10/19 07:21:03;;;;;;;;;;;;;;;9.55;85.85;99115.30;1768189;79;24399;-84
2021/10/19 07:23:29;;;;;;;;;;;;;;;9.62;85.84;99110.13;1765052;81;22068;-84
2021/10/19 07:25:55;;;;;;;;;;;;;;;9.66;85.87;99112.95;1806161;78;26014;-84
2021/10/19 07:28:21;;;;;;;;;;;;;;;9.68;85.84;99115.02;1802285;78;24486;-85
2021/10/19 07:30:48;;;;;;;;;;;;;;;9.72;85.83;99120.91;1764166;79;20212;-84
2021/10/19 07:33:14;;;;;;;;;;;;;;;9.76;85.79;99119.84;1754519;80;24376;-84
2021/10/19 07:35:40;;;;;;;;;;;;;;;9.81;85.81;99121.27;1771639;79;22055;-85
2021/10/19 07:38:06;;;;;;;;;;;;;;;9.86;85.81;99121.85;1751964;81;20989;-84
2021/10/19 07:40:32;;;;;;;;;;;;;;;9.92;85.79;99127.20;1748501;81;24471;-85
2021/10/19 07:42:58;;;;;;;;;;;;;;;9.96;85.76;99134.78;1730376;81;20495;-85
2021/10/19 07:45:26;;;;;;;;;;;;;;;10.03;85.75;99143.13;1735257;79;24259;-85
2021/10/19 07:47:52;;;;;;;;;;;;;;;10.08;85.76;99139.80;1750019;80;22723;-86
2021/10/19 07:50:20;;;;;;;;;;;;;;;10.12;85.75;99139.98;1782988;78;26115;-85
2021/10/19 07:52:47;;;;;;;;;;;;;;;10.14;85.74;99140.75;1789940;79;24783;-86
2021/10/19 07:55:13;;;;;;;;;;;;;;;10.21;85.72;99136.87;1784849;79;20196;-85
2021/10/19 07:57:46;;;;;;;;;;;;;;;10.26;85.69;99137.91;1749829;80;24307;-86
2021/10/19 08:00:13;;;;;;;;;;;;;;;10.29;85.68;99132.06;1754361;79;21991;-86
2021/10/19 08:02:42;;;;;;;;;;;;;;;10.35;85.64;99131.70;1756594;81;25990;-85
2021/10/19 08:05:12;;;;;;;;;;;;;;;10.40;85.61;99130.98;1755034;80;24708;-86
2021/10/19 08:07:37;;;;;;;;;;;;;;;10.47;85.55;99130.16;1766364;79;20211;-85
2021/10/19 08:10:03;;;;;;;;;;;;;;;10.55;85.52;99134.92;1759302;80;24641;-85
2021/10/19 08:12:29;;;;;;;;;;;;;;;10.66;85.52;99132.52;1754097;80;22064;-85
2021/10/19 08:15:00;;;;;;;;;;;;;;;10.74;85.50;99129.00;1770990;79;26018;-85
2021/10/19 08:17:24;;;;;;;;;;;;;;;10.84;85.49;99130.98;1763212;81;24496;-86
2021/10/19 08:19:50;;;;;;;;;;;;;;;10.94;85.48;99124.72;1811311;78;20198;-85
2021/10/19 08:22:16;;;;;;;;;;;;;;;11.03;85.46;99132.47;1810113;78;24831;-85
2021/10/19 08:24:45;;;;;;;;;;;;;;;11.04;85.38;99123.22;1808386;78;22034;-85
2021/10/19 08:27:14;;;;;;;;;;;;;;;11.07;85.32;99117.81;1800768;78;26800;-86
2021/10/19 08:29:40;;;;;;;;;;;;;;;11.13;85.24;99121.80;1771456;79;25925;-86
2021/10/19 08:32:06;;;;;;;;;;;;;;;11.19;85.15;99128.83;1759897;80;20509;-85
2021/10/19 08:34:32;;;;;;;;;;;;;;;11.22;85.03;99122.57;1761421;80;24540;-86
2021/10/19 08:36:58;;;;;;;;;;;;;;;11.26;84.94;99117.50;1751969;79;22106;-86
2021/10/19 08:39:24;;;;;;;;;;;;;;;11.28;84.84;99124.35;1790996;78;26137;-85
2021/10/19 08:41:51;;;;;;;;;;;;;;;11.37;84.74;99126.02;1786001;78;20231;-86
2021/10/19 08:44:24;;;;;;;;;;;;;;;11.43;84.68;99126.95;1758617;80;20285;-86
2021/10/19 08:46:47;;;;;;;;;;;;;;;11.48;84.61;99126.19;1788256;79;24774;-85
2021/10/19 08:49:13;;;;;;;;;;;;;;;11.56;84.53;99132.66;1757019;81;22046;-86
2021/10/19 08:51:41;;;;;;;;;;;;;;;11.63;84.46;99130.46;1781105;78;26115;-86
2021/10/19 08:54:07;;;;;;;;;;;;;;;11.72;84.42;99131.22;1781204;78;24469;-86
2021/10/19 08:56:35;;;;;;;;;;;;;;;11.80;84.33;99127.66;1779207;78;20216;-86
2021/10/19 08:59:01;;;;;;;;;;;;;;;11.89;84.25;99135.42;1783362;78;24985;-86
2021/10/19 09:01:35;;;;;;;;;;;;;;;12.00;84.17;99128.52;1783057;78;21943;-86
2021/10/19 09:04:02;;;;;;;;;;;;;;;12.14;84.04;99136.83;1764788;78;26884;-86
2021/10/19 09:06:34;;;;;;;;;;;;;;;12.24;83.87;99128.72;1795088;77;24505;-85
2021/10/19 09:09:08;;;;;;;;;;;;;;;12.34;83.72;99133.73;1774837;79;20315;-86
2021/10/19 09:11:41;;;;;;;;;;;;;;;12.40;83.54;99128.08;1766335;78;25407;-86
2021/10/19 09:14:08;;;;;;;;;;;;;;;12.47;83.42;99125.42;1757632;79;21996;-85
2021/10/19 09:16:38;;;;;;;;;;;;;;;12.53;83.28;99116.30;1832071;76;26052;-85
2021/10/19 09:19:04;;;;;;;;;;;;;;;12.60;83.14;99113.61;1833444;76;24467;-86
2021/10/19 09:21:31;;;;;;;;;;;;;;;12.67;82.99;99104.86;1832513;77;20149;-86
2021/10/19 09:24:15;;;;;;;;;;;;;;;12.77;82.85;99104.59;1786707;79;25355;-85
2021/10/19 09:26:55;;;;;;;;;;;;;;;12.86;82.75;99096.95;1745668;80;21983;-85
2021/10/19 09:29:21;;;;;;;;;;;;;;;12.94;82.65;99078.86;1785524;79;26114;-86
2021/10/19 09:31:51;;;;;;;;;;;;;;;13.06;82.48;99078.95;1786311;79;24530;-86
2021/10/19 09:34:17;;;;;;;;;;;;;;;13.16;82.38;99074.77;1784143;79;20221;-86
2021/10/19 09:36:43;;;;;;;;;;;;;;;13.24;82.24;99071.14;1744802;80;20327;-85
2021/10/19 09:39:09;;;;;;;;;;;;;;;13.29;82.08;99067.71;1782887;79;20362;-85
2021/10/19 09:41:43;;;;;;;;;;;;;;;13.31;81.90;99071.89;1784009;78;21194;-85
2021/10/19 09:44:10;;;;;;;;;;;;;;;13.32;81.74;99068.32;1781207;79;24716;-85
2021/10/19 09:46:37;;;;;;;;;;;;;;;13.35;81.55;99072.53;1785531;78;20251;-86
2021/10/19 09:49:03;;;;;;;;;;;;;;;13.37;81.35;99072.78;1743879;80;24588;-85
2021/10/19 09:51:31;;;;;;;;;;;;;;;13.37;81.13;99070.62;1751021;80;22058;-86
2021/10/19 09:53:57;;;;;;;;;;;;;;;13.38;80.90;99065.73;1745813;80;26238;-85
2021/10/19 09:56:23;;;;;;;;;;;;;;;13.42;80.65;99071.63;1784970;78;25451;-85
2021/10/19 09:58:49;;;;;;;;;;;;;;;13.49;80.48;99064.49;1779914;79;20262;-86
2021/10/19 10:01:15;;;;;;;;;;;;;;;13.51;80.35;99063.08;1780812;80;24579;-85
2021/10/19 10:03:44;;;;;;;;;;;;;;;13.54;80.21;99062.84;1747817;80;22061;-86
2021/10/19 10:06:10;;;;;;;;;;;;;;;13.57;80.05;99060.85;1766198;79;26063;-86
2021/10/19 10:08:38;;;;;;;;;;;;;;;13.62;79.85;99064.46;1745485;80;24732;-86
2021/10/19 10:11:04;;;;;;;;;;;;;;;13.62;79.67;99067.94;1722856;80;20294;-86
2021/10/19 10:13:33;;;;;;;;;;;;;;;13.63;79.52;99060.41;1806441;78;24513;-86
2021/10/19 10:16:01;;;;;;;;;;;;;;;13.68;79.39;99060.92;1767099;80;22865;-86
2021/10/19 10:18:32;;;;;;;;;;;;;;;13.71;79.21;99067.26;1762883;80;26852;-86
2021/10/19 10:20:58;;;;;;;;;;;;;;;13.78;79.06;99071.61;1754475;80;24377;-86
2021/10/19 10:23:27;;;;;;;;;;;;;;;13.85;78.94;99063.64;1761670;80;20402;-85
2021/10/19 10:25:56;;;;;;;;;;;;;;;13.91;78.78;99056.58;1762518;79;24543;-85
2021/10/19 10:28:28;;;;;;;;;;;;;;;13.98;78.60;99047.77;1774494;79;20457;-86
2021/10/19 10:30:56;;;;;;;;;;;;;;;14.04;78.45;99047.32;1762195;80;26193;-86
2021/10/19 10:33:32;;;;;;;;;;;;;;;14.08;78.30;99050.08;1791709;78;24515;-86
2021/10/19 10:36:00;;;;;;;;;;;;;;;14.12;78.18;99047.13;1767247;80;20208;-85
2021/10/19 10:38:26;;;;;;;;;;;;;;;14.18;78.00;99039.25;1777821;79;24596;-86
2021/10/19 10:40:56;;;;;;;;;;;;;;;14.28;77.87;99032.34;1772344;80;20392;-86
2021/10/19 10:43:27;;;;;;;;;;;;;;;14.33;77.71;99026.25;1771272;79;25999;-85
2021/10/19 10:46:07;;;;;;;;;;;;;;;14.43;77.57;99028.57;1774940;78;24501;-86
2021/10/19 10:48:34;;;;;;;;;;;;;;;14.51;77.33;99022.73;1770914;79;20169;-86
2021/10/19 10:51:02;;;;;;;;;;;;;;;14.52;77.14;99010.73;1768041;80;24684;-86
2021/10/19 10:53:41;;;;;;;;;;;;;;;14.54;76.94;99010.16;1776445;79;22067;-85
2021/10/19 10:56:09;;;;;;;;;;;;;;;14.61;76.75;99019.27;1775550;79;26673;-86
2021/10/19 10:58:37;;;;;;;;;;;;;;;14.64;76.54;99020.81;1774326;80;24437;-85
2021/10/19 11:01:22;;;;;;;;;;;;;;;14.68;76.36;99020.09;1778743;80;20578;-86
2021/10/19 11:03:49;;;;;;;;;;;;;;;14.79;76.19;99021.41;1775210;79;24522;-86
2021/10/19 11:06:16;;;;;;;;;;;;;;;14.86;75.97;99027.42;1775189;80;22814;-85
2021/10/19 11:08:43;;;;;;;;;;;;;;;14.91;75.75;99021.78;1761347;80;26047;-86
2021/10/19 11:11:10;;;;;;;;;;;;;;;14.95;75.58;99013.98;1758108;79;25343;-86
2021/10/19 11:13:55;;;;;;;;;;;;;;;14.99;75.41;99009.70;1761530;80;20281;-86
2021/10/19 11:16:35;;;;;;;;;;;;;;;15.07;75.20;99009.08;1766749;80;24652;-86
2021/10/19 11:19:21;;;;;;;;;;;;;;;15.12;74.95;99010.87;1767155;79;21990;-87
2021/10/19 11:21:54;;;;;;;;;;;;;;;15.18;74.82;99018.30;1756872;80;26093;-87
2021/10/19 11:24:18;;;;;;;;;;;;;;;15.23;74.64;99016.61;1766702;79;24621;-87
2021/10/19 11:26:46;;;;;;;;;;;;;;;15.24;74.43;99009.90;1759029;80;20215;-87
2021/10/19 11:29:12;;;;;;;;;;;;;;;15.27;74.24;99008.36;1818531;78;24602;-87
2021/10/19 11:31:39;;;;;;;;;;;;;;;15.28;74.01;99002.09;1782436;78;21928;-87
2021/10/19 11:34:06;;;;;;;;;;;;;;;15.30;73.80;98997.55;1780447;78;26125;-86
2021/10/19 11:36:33;;;;;;;;;;;;;;;15.34;73.64;98995.48;1780167;78;24434;-86
2021/10/19 11:39:01;;;;;;;;;;;;;;;15.30;73.51;98985.68;1776984;78;20637;-86
2021/10/19 11:41:28;;;;;;;;;;;;;;;15.31;73.30;98981.25;1774614;78;25224;-87
2021/10/19 11:43:56;;;;;;;;;;;;;;;15.30;73.11;98977.77;1777981;78;22722;-87
2021/10/19 11:46:23;;;;;;;;;;;;;;;15.40;72.96;98977.38;1775967;78;27204;-87
2021/10/19 11:48:50;;;;;;;;;;;;;;;15.43;72.78;98974.51;1778452;78;24479;-87
2021/10/19 11:51:18;;;;;;;;;;;;;;;15.45;72.63;98959.86;1777603;78;20173;-86
2021/10/19 11:53:46;;;;;;;;;;;;;;;15.47;72.47;98948.23;1784688;78;24227;-87
2021/10/19 11:56:14;;;;;;;;;;;;;;;15.47;72.28;98935.05;1777082;78;22156;-86
2021/10/19 11:58:56;;;;;;;;;;;;;;;15.50;72.14;98941.37;1779984;78;26052;-87
2021/10/19 12:01:24;;;;;;;;;;;;;;;15.45;71.92;98935.64;1791663;78;24577;-87
2021/10/19 12:03:57;;;;;;;;;;;;;;;15.44;71.71;98930.00;1794611;78;20475;-86
2021/10/19 12:06:25;;;;;;;;;;;;;;;15.43;71.48;98926.19;1786357;78;24688;-86
2021/10/19 12:08:51;;;;;;;;;;;;;;;15.59;71.26;98917.89;1807857;77;21997;-86
2021/10/19 12:11:19;;;;;;;;;;;;;;;15.70;71.07;98913.88;1798570;79;26613;-86
2021/10/19 12:13:47;;;;;;;;;;;;;;;15.71;70.81;98903.69;1781380;79;24363;-87
2021/10/19 12:16:13;;;;;;;;;;;;;;;15.80;70.68;98898.95;1771997;79;20230;-87
2021/10/19 12:18:41;;;;;;;;;;;;;;;15.88;70.57;98899.96;1754066;80;24629;-86
2021/10/19 12:21:07;;;;;;;;;;;;;;;15.95;70.41;98901.61;1733203;79;22108;-86
2021/10/19 12:23:33;;;;;;;;;;;;;;;16.01;70.17;98905.53;1756750;80;25950;-87
2021/10/19 12:26:02;;;;;;;;;;;;;;;16.04;69.92;98902.14;1760342;80;24489;-86
2021/10/19 12:28:29;;;;;;;;;;;;;;;16.09;69.71;98901.27;1755893;79;20241;-87
2021/10/19 12:30:56;;;;;;;;;;;;;;;16.16;69.54;98897.14;1813413;78;24519;-86
2021/10/19 12:33:23;;;;;;;;;;;;;;;16.21;69.32;98892.78;1812629;78;22858;-86
2021/10/19 12:35:57;;;;;;;;;;;;;;;16.25;69.08;98884.98;1801168;78;26142;-87
2021/10/19 12:38:29;;;;;;;;;;;;;;;16.27;68.87;98889.14;1812199;78;24584;-86
2021/10/19 12:40:57;;;;;;;;;;;;;;;16.28;68.65;98882.89;1800572;78;20498;-87
2021/10/19 12:43:23;;;;;;;;;;;;;;;16.29;68.49;98879.30;1807822;78;24605;-87
2021/10/19 12:45:51;;;;;;;;;;;;;;;16.31;68.37;98883.10;1796648;79;20209;-86
2021/10/19 12:48:17;;;;;;;;;;;;;;;16.34;68.26;98881.53;1776169;78;21057;-87
2021/10/19 12:50:43;;;;;;;;;;;;;;;16.35;68.13;98889.81;1800764;78;20774;-87
2021/10/19 12:53:15;;;;;;;;;;;;;;;16.38;67.96;98890.86;1804947;78;20207;-87
2021/10/19 12:55:42;;;;;;;;;;;;;;;16.39;67.74;98879.81;1803849;78;24055;-87